Time;durP1;ratioP1;P1;durP2;ratioP2;P2;SDS_P1;SDS_P2;PMS_P1;PMS_P2;Temp;Humidity;BMP_temperature;BMP_pressure;BME280_temperature;BME280_humidity;BME280_pressure;Samples;Min_cycle;Max_cycle;Signal;HPM_P1;HPM_P2
2024/01/02 00:01:49;;;;;;;42.17;23.40;;;4.70;99.90;;;;;;6158843;23;20176;-87
2024/01/02 00:04:18;;;;;;;42.70;23.50;;;4.70;99.90;;;;;;6162964;23;20160;-86
2024/01/02 00:06:49;;;;;;;40.70;23.70;;;4.60;99.90;;;;;;6158293;23;20354;-87
2024/01/02 00:09:19;;;;;;;42.20;23.60;;;4.50;99.90;;;;;;6155439;23;20188;-87
2024/01/02 00:11:50;;;;;;;42.30;23.57;;;4.50;99.90;;;;;;6153264;23;20161;-86
2024/01/02 00:14:19;;;;;;;39.53;23.20;;;4.60;99.90;;;;;;6149257;23;20257;-88
2024/01/02 00:16:49;;;;;;;44.80;23.70;;;4.60;99.90;;;;;;6116173;23;20306;-87
2024/01/02 00:19:17;;;;;;;39.47;23.03;;;4.60;99.90;;;;;;6151153;23;20204;-85
2024/01/02 00:21:47;;;;;;;42.00;23.20;;;4.60;99.90;;;;;;6151131;23;20168;-85
2024/01/02 00:24:15;;;;;;;38.13;22.00;;;4.60;99.90;;;;;;6150659;23;20189;-84
2024/01/02 00:26:46;;;;;;;39.93;21.77;;;4.70;99.90;;;;;;6167542;23;20182;-88
2024/01/02 00:29:14;;;;;;;39.00;22.30;;;4.60;99.90;;;;;;6152171;23;20214;-86
2024/01/02 00:31:44;;;;;;;40.90;22.87;;;4.70;99.90;;;;;;6165169;23;20178;-85
2024/01/02 00:34:13;;;;;;;42.53;24.47;;;4.70;99.90;;;;;;6173879;23;20182;-86
2024/01/02 00:36:42;;;;;;;39.83;23.87;;;4.70;99.90;;;;;;6133837;23;20184;-89
2024/01/02 00:39:11;;;;;;;44.20;23.23;;;4.70;99.90;;;;;;6168705;23;20198;-85
2024/01/02 00:41:42;;;;;;;44.60;24.63;;;4.80;99.90;;;;;;6165988;23;20466;-87
2024/01/02 00:44:12;;;;;;;39.77;22.20;;;4.60;99.90;;;;;;6157523;23;20267;-87
2024/01/02 00:46:41;;;;;;;37.67;22.43;;;4.60;99.90;;;;;;6118483;23;20181;-87
2024/01/02 00:49:10;;;;;;;38.13;22.30;;;4.70;99.90;;;;;;6156820;23;20273;-85
2024/01/02 00:51:39;;;;;;;37.87;21.40;;;4.90;99.90;;;;;;6155274;23;20211;-88
2024/01/02 00:54:08;;;;;;;44.30;22.40;;;4.70;99.90;;;;;;6151921;23;20551;-84
2024/01/02 00:56:37;;;;;;;39.53;21.63;;;4.60;99.90;;;;;;6155218;23;20205;-86
2024/01/02 00:59:06;;;;;;;38.07;22.10;;;4.70;99.90;;;;;;6152131;23;20482;-87
2024/01/02 01:01:37;;;;;;;34.80;20.83;;;4.70;99.90;;;;;;6149539;23;20178;-86
2024/01/02 01:04:07;;;;;;;38.00;21.37;;;4.70;99.90;;;;;;6153926;23;20162;-85
2024/01/02 01:06:37;;;;;;;37.17;21.00;;;4.70;99.90;;;;;;6163505;23;20193;-86
2024/01/02 01:09:05;;;;;;;39.43;20.73;;;4.80;99.90;;;;;;6161328;23;20167;-87
2024/01/02 01:11:36;;;;;;;36.93;20.70;;;4.70;99.90;;;;;;6116553;23;20177;-85
2024/01/02 01:14:04;;;;;;;35.37;19.43;;;4.80;99.90;;;;;;6152397;23;20255;-86
2024/01/02 01:16:33;;;;;;;36.50;20.63;;;4.70;99.90;;;;;;6117972;23;20292;-87
2024/01/02 01:19:04;;;;;;;39.30;22.00;;;4.70;99.90;;;;;;6168147;23;20202;-85
2024/01/02 01:21:34;;;;;;;38.17;20.80;;;4.70;99.90;;;;;;6164304;23;20161;-86
2024/01/02 01:24:03;;;;;;;38.67;21.03;;;4.70;99.90;;;;;;6140176;23;20192;-86
2024/01/02 01:26:32;;;;;;;38.13;21.10;;;4.70;99.90;;;;;;6177423;23;20340;-86
2024/01/02 01:29:02;;;;;;;37.13;20.70;;;5.00;99.90;;;;;;6177113;23;20203;-84
2024/01/02 01:31:30;;;;;;;41.57;20.80;;;4.80;99.90;;;;;;6176645;23;20314;-85
2024/01/02 01:33:59;;;;;;;37.67;19.10;;;4.80;99.90;;;;;;6171514;23;20151;-85
2024/01/02 01:36:29;;;;;;;38.40;21.27;;;4.80;99.90;;;;;;6159622;23;20476;-83
2024/01/02 01:38:58;;;;;;;34.97;20.87;;;4.70;99.90;;;;;;6163780;23;20209;-87
2024/01/02 01:41:27;;;;;;;39.67;21.37;;;4.70;99.90;;;;;;6160025;23;20743;-86
2024/01/02 01:43:55;;;;;;;36.93;21.47;;;4.80;99.90;;;;;;6162111;23;20454;-86
2024/01/02 01:46:26;;;;;;;33.13;20.70;;;4.80;99.90;;;;;;6125411;23;20182;-85
2024/01/02 01:48:58;;;;;;;38.60;20.47;;;4.80;99.90;;;;;;6164830;23;20181;-88
2024/01/02 01:51:29;;;;;;;37.50;20.03;;;4.70;99.90;;;;;;6163792;23;20167;-88
2024/01/02 01:54:01;;;;;;;33.43;20.03;;;4.80;99.90;;;;;;6125618;23;20205;-83
2024/01/02 01:56:32;;;;;;;36.17;20.33;;;4.80;99.90;;;;;;6160877;23;20755;-88
2024/01/02 01:59:04;;;;;;;34.07;19.10;;;4.80;99.90;;;;;;6163535;23;20468;-87
2024/01/02 02:01:34;;;;;;;36.90;19.20;;;4.80;99.90;;;;;;6121992;23;20255;-86
2024/01/02 02:04:04;;;;;;;31.57;18.13;;;4.90;99.90;;;;;;6153386;23;20247;-86
2024/01/02 02:06:34;;;;;;;34.30;19.47;;;4.80;99.90;;;;;;6149907;23;20181;-87
2024/01/02 02:09:04;;;;;;;34.17;18.93;;;4.80;99.90;;;;;;6161133;23;20204;-86
2024/01/02 02:11:34;;;;;;;33.47;18.57;;;4.70;99.90;;;;;;6157755;23;20211;-88
2024/01/02 02:14:04;;;;;;;36.10;18.93;;;4.60;99.90;;;;;;6154931;23;21013;-85
2024/01/02 02:16:34;;;;;;;38.10;18.50;;;4.70;99.90;;;;;;6150968;23;20176;-87
2024/01/02 02:19:03;;;;;;;31.43;18.33;;;4.90;99.90;;;;;;6113571;23;20854;-82
2024/01/02 02:21:36;;;;;;;31.37;18.37;;;4.70;99.90;;;;;;6148522;23;20186;-86
2024/01/02 02:24:09;;;;;;;31.83;18.50;;;4.80;99.90;;;;;;6149135;23;20202;-86
2024/01/02 02:26:38;;;;;;;34.67;17.93;;;4.80;99.90;;;;;;6147275;23;20572;-87
2024/01/02 02:29:07;;;;;;;27.00;16.43;;;4.60;99.90;;;;;;6113887;23;20234;-88
2024/01/02 02:31:36;;;;;;;33.90;17.80;;;4.80;99.90;;;;;;6150485;23;20221;-85
2024/01/02 02:34:04;;;;;;;32.87;16.73;;;4.80;99.90;;;;;;6157932;23;20178;-86
2024/01/02 02:36:33;;;;;;;30.10;17.40;;;4.80;99.90;;;;;;6168383;23;20141;-86
2024/01/02 02:39:02;;;;;;;32.77;17.13;;;4.80;99.90;;;;;;6165812;23;20498;-83
2024/01/02 02:41:32;;;;;;;33.70;17.67;;;4.80;99.90;;;;;;6168306;23;20208;-83
2024/01/02 02:44:01;;;;;;;32.90;18.40;;;4.90;99.90;;;;;;6168983;23;20161;-85
2024/01/02 02:46:30;;;;;;;34.17;17.40;;;4.90;99.90;;;;;;6166226;23;20452;-85
2024/01/02 02:48:58;;;;;;;28.60;17.60;;;4.90;99.90;;;;;;6165636;23;20197;-85
2024/01/02 02:51:27;;;;;;;32.10;18.70;;;4.90;99.90;;;;;;6166781;23;20177;-83
2024/01/02 02:53:56;;;;;;;33.80;18.27;;;5.00;99.90;;;;;;6159523;23;20165;-86
2024/01/02 02:56:25;;;;;;;32.10;18.27;;;5.00;99.90;;;;;;6129460;23;20224;-85
2024/01/02 02:58:56;;;;;;;31.50;18.27;;;5.00;99.90;;;;;;6168530;23;20189;-85
2024/01/02 03:01:25;;;;;;;32.57;17.83;;;5.00;99.90;;;;;;6153630;23;20178;-87
2024/01/02 03:04:02;;;;;;;31.57;17.67;;;5.10;99.90;;;;;;6153786;23;20199;-85
2024/01/02 03:06:31;;;;;;;30.83;16.47;;;4.90;99.90;;;;;;6150291;23;20190;-88
2024/01/02 03:09:00;;;;;;;27.03;16.43;;;4.90;99.90;;;;;;6116918;23;20183;-87
2024/01/02 03:11:34;;;;;;;30.53;16.93;;;4.90;99.90;;;;;;6153185;23;20166;-86
2024/01/02 03:14:04;;;;;;;32.33;17.03;;;4.90;99.90;;;;;;6150723;23;20164;-87
2024/01/02 03:16:34;;;;;;;30.13;16.60;;;4.90;99.90;;;;;;6152063;23;20185;-88
2024/01/02 03:19:05;;;;;;;31.63;17.00;;;5.10;99.90;;;;;;6153010;23;20158;-86
2024/01/02 03:21:34;;;;;;;31.90;16.23;;;4.90;99.90;;;;;;6151445;23;20207;-86
2024/01/02 03:24:04;;;;;;;28.80;15.40;;;4.90;99.90;;;;;;6152339;23;20417;-82
2024/01/02 03:26:34;;;;;;;24.60;14.73;;;5.00;99.90;;;;;;6152727;23;20165;-84
2024/01/02 03:29:04;;;;;;;26.00;15.63;;;5.00;99.90;;;;;;6151090;23;20249;-84
2024/01/02 03:31:33;;;;;;;25.90;15.80;;;5.00;99.90;;;;;;6152822;23;20164;-86
2024/01/02 03:34:05;;;;;;;31.17;16.60;;;5.00;99.90;;;;;;6154162;23;20204;-86
2024/01/02 03:36:35;;;;;;;26.33;15.17;;;5.00;99.90;;;;;;6157172;23;20874;-85
2024/01/02 03:39:03;;;;;;;28.57;15.40;;;5.00;99.90;;;;;;6158135;23;20162;-87
2024/01/02 03:41:33;;;;;;;28.57;16.33;;;5.00;99.90;;;;;;6150178;23;20220;-87
2024/01/02 03:44:02;;;;;;;33.30;18.23;;;5.00;99.90;;;;;;6150052;23;20164;-85
2024/01/02 03:46:32;;;;;;;32.63;18.67;;;5.10;99.90;;;;;;6112832;23;20181;-88
2024/01/02 03:49:01;;;;;;;37.57;19.47;;;5.10;99.90;;;;;;6152294;23;20183;-86
2024/01/02 03:51:32;;;;;;;35.57;20.03;;;5.20;99.90;;;;;;6159928;23;20209;-84
2024/01/02 03:54:01;;;;;;;35.57;19.37;;;5.20;99.90;;;;;;6164532;23;20704;-85
2024/01/02 03:56:34;;;;;;;36.37;19.83;;;5.10;99.90;;;;;;6154831;23;20166;-87
2024/01/02 03:59:03;;;;;;;35.07;19.33;;;5.10;99.90;;;;;;6154725;23;20179;-85
2024/01/02 04:01:45;;;;;;;34.00;20.23;;;5.40;99.90;;;;;;6154283;23;20670;-84
2024/01/02 04:04:20;;;;;;;37.90;19.47;;;5.20;99.90;;;;;;6157103;23;20181;-85
2024/01/02 04:07:07;;;;;;;34.20;18.47;;;5.20;99.90;;;;;;6155691;23;20212;-88
2024/01/02 04:09:36;;;;;;;30.13;17.63;;;5.10;99.90;;;;;;6155061;23;20318;-86
2024/01/02 04:12:08;;;;;;;34.33;18.80;;;5.10;99.90;;;;;;6159310;23;20171;-84
2024/01/02 04:14:40;;;;;;;30.03;17.90;;;5.10;99.90;;;;;;6157428;23;20174;-84
2024/01/02 04:17:11;;;;;;;32.70;18.33;;;5.00;99.90;;;;;;6159479;23;20510;-85
2024/01/02 04:19:39;;;;;;;30.87;18.40;;;5.10;99.90;;;;;;6156786;23;20171;-87
2024/01/02 04:22:18;;;;;;;32.50;18.10;;;5.10;99.90;;;;;;6162923;23;20375;-83
2024/01/02 04:24:47;;;;;;;33.37;19.07;;;5.00;99.90;;;;;;6162465;23;20210;-85
2024/01/02 04:27:16;;;;;;;36.10;19.10;;;5.10;99.90;;;;;;6161972;23;20330;-87
2024/01/02 04:29:45;;;;;;;31.77;18.47;;;5.30;99.90;;;;;;6161082;23;20162;-84
2024/01/02 04:32:15;;;;;;;35.73;20.53;;;5.30;99.90;;;;;;6166544;23;20183;-86
2024/01/02 04:34:44;;;;;;;35.40;19.97;;;5.00;99.90;;;;;;6172009;23;20161;-85
2024/01/02 04:37:17;;;;;;;32.87;19.20;;;5.10;99.90;;;;;;6167564;23;20159;-86
2024/01/02 04:39:46;;;;;;;37.57;19.43;;;5.20;99.90;;;;;;6171296;23;20178;-85
2024/01/02 04:42:15;;;;;;;35.90;19.67;;;5.20;99.90;;;;;;6162609;23;20205;-83
2024/01/02 04:44:44;;;;;;;35.80;18.37;;;5.20;99.90;;;;;;6164598;23;20178;-87
2024/01/02 04:47:18;;;;;;;31.83;18.43;;;5.00;99.90;;;;;;6158828;23;20183;-87
2024/01/02 04:49:47;;;;;;;36.53;18.40;;;5.30;99.90;;;;;;6158155;23;20212;-84
2024/01/02 04:52:16;;;;;;;32.37;18.47;;;5.20;99.90;;;;;;6157272;23;20179;-87
2024/01/02 04:54:48;;;;;;;31.10;17.87;;;5.20;99.90;;;;;;6155558;23;20191;-86
2024/01/02 04:57:20;;;;;;;31.10;17.70;;;5.30;99.90;;;;;;6158810;23;20231;-85
2024/01/02 04:59:48;;;;;;;32.67;18.10;;;5.30;99.90;;;;;;6160329;23;20449;-88
2024/01/02 05:02:22;;;;;;;35.53;17.53;;;5.20;99.90;;;;;;6159993;23;20262;-86
2024/01/02 05:04:55;;;;;;;33.17;18.17;;;5.30;99.90;;;;;;6160124;23;20624;-84
2024/01/02 05:07:27;;;;;;;34.00;18.53;;;5.50;99.90;;;;;;6162385;23;20213;-88
2024/01/02 05:09:57;;;;;;;32.77;18.13;;;5.30;99.90;;;;;;6160065;23;20189;-85
2024/01/02 05:12:34;;;;;;;29.87;17.50;;;5.30;99.90;;;;;;6160374;23;20400;-85
2024/01/02 05:15:03;;;;;;;31.87;18.13;;;5.40;99.90;;;;;;6168681;23;20183;-84
2024/01/02 05:17:39;;;;;;;27.03;17.00;;;5.30;99.90;;;;;;6162183;23;20224;-88
2024/01/02 05:20:09;;;;;;;26.20;15.73;;;5.40;99.90;;;;;;6162643;23;20178;-86
2024/01/02 05:22:39;;;;;;;36.00;17.67;;;5.30;99.90;;;;;;6162986;23;20777;-85
2024/01/02 05:25:32;;;;;;;30.17;17.17;;;5.30;99.90;;;;;;6161667;23;20530;-85
2024/01/02 05:28:01;;;;;;;30.30;17.20;;;5.40;99.90;;;;;;6165801;23;20207;-86
2024/01/02 05:30:49;;;;;;;34.33;18.57;;;5.30;99.90;;;;;;6171353;23;20186;-85
2024/01/02 05:33:22;;;;;;;30.67;18.10;;;5.30;99.90;;;;;;6159412;23;20241;-86
2024/01/02 05:35:51;;;;;;;33.03;17.67;;;5.30;99.90;;;;;;6165300;23;20161;-87
2024/01/02 05:38:20;;;;;;;29.37;17.13;;;5.30;99.90;;;;;;6156870;23;20567;-87
2024/01/02 05:40:50;;;;;;;34.33;17.93;;;5.30;99.90;;;;;;6153417;23;20269;-87
2024/01/02 05:43:19;;;;;;;30.10;17.53;;;5.30;99.90;;;;;;6155707;23;20188;-86
2024/01/02 05:45:56;;;;;;;32.53;18.63;;;5.30;99.90;;;;;;6157667;23;20178;-85
2024/01/02 05:48:31;;;;;;;28.03;17.43;;;5.30;99.90;;;;;;6159201;23;20166;-86
2024/01/02 05:51:13;;;;;;;30.53;18.07;;;5.20;99.90;;;;;;6157843;23;20169;-87
2024/01/02 05:53:42;;;;;;;27.47;17.40;;;5.30;99.90;;;;;;6159716;23;20734;-88
2024/01/02 05:56:12;;;;;;;30.90;18.87;;;5.30;99.90;;;;;;6162412;23;20170;-86
2024/01/02 05:58:41;;;;;;;28.30;16.93;;;5.30;99.90;;;;;;6164825;23;20162;-84
2024/01/02 06:01:10;;;;;;;29.87;17.77;;;5.30;99.90;;;;;;6160760;23;20213;-86
2024/01/02 06:03:41;;;;;;;26.57;17.17;;;5.30;99.90;;;;;;6157756;23;20431;-89
2024/01/02 06:06:11;;;;;;;27.60;17.37;;;5.40;99.90;;;;;;6159249;23;20550;-86
2024/01/02 06:09:16;;;;;;;29.97;17.63;;;5.40;99.90;;;;;;6159367;23;20190;-82
2024/01/02 06:11:48;;;;;;;25.70;17.20;;;5.40;99.90;;;;;;6147107;23;20196;-87
2024/01/02 06:14:20;;;;;;;31.57;17.23;;;5.30;99.90;;;;;;6163343;23;20159;-87
2024/01/02 06:16:49;;;;;;;29.20;17.07;;;5.20;99.90;;;;;;6177490;23;20504;-84
2024/01/02 06:19:26;;;;;;;30.43;17.73;;;5.20;99.90;;;;;;6176977;23;20170;-88
2024/01/02 06:21:55;;;;;;;26.30;17.30;;;5.30;99.90;;;;;;6177066;23;20174;-86
2024/01/02 06:24:31;;;;;;;30.80;17.33;;;5.20;99.90;;;;;;6178082;23;20167;-86
2024/01/02 06:27:03;;;;;;;32.17;19.07;;;5.20;99.90;;;;;;6177929;23;20161;-84
2024/01/02 06:29:32;;;;;;;29.90;16.63;;;5.30;99.90;;;;;;6179509;23;20170;-87
2024/01/02 06:32:05;;;;;;;29.77;17.93;;;5.30;99.90;;;;;;6177847;23;20150;-88
2024/01/02 06:34:36;;;;;;;31.23;18.10;;;5.20;99.90;;;;;;6178506;23;20227;-87
2024/01/02 06:37:05;;;;;;;31.97;18.20;;;5.40;99.90;;;;;;6178382;23;20167;-88
2024/01/02 06:39:34;;;;;;;30.83;17.30;;;5.30;99.90;;;;;;6172029;23;20171;-86
2024/01/02 06:42:04;;;;;;;30.73;16.43;;;5.30;99.90;;;;;;6175175;23;20208;-86
2024/01/02 06:44:36;;;;;;;28.10;16.50;;;5.30;99.90;;;;;;6175540;23;20186;-87
2024/01/02 06:47:08;;;;;;;25.13;14.87;;;5.30;99.90;;;;;;6176309;23;20401;-82
2024/01/02 06:49:41;;;;;;;26.17;15.67;;;5.30;99.90;;;;;;6177382;23;20179;-84
2024/01/02 06:52:18;;;;;;;27.30;15.83;;;5.30;99.90;;;;;;6177759;23;20282;-82
2024/01/02 06:54:50;;;;;;;25.70;15.30;;;5.30;99.90;;;;;;6175159;23;20163;-83
2024/01/02 06:57:25;;;;;;;21.37;15.20;;;5.30;99.90;;;;;;6140242;23;20187;-86
2024/01/02 06:59:55;;;;;;;23.07;14.00;;;5.40;99.90;;;;;;6164456;23;20239;-85
2024/01/02 07:02:23;;;;;;;21.60;12.93;;;5.30;99.90;;;;;;6151119;23;20196;-83
2024/01/02 07:04:54;;;;;;;25.43;14.33;;;5.30;99.90;;;;;;6155305;23;20182;-87
2024/01/02 07:07:25;;;;;;;24.17;13.70;;;5.30;99.90;;;;;;6155966;23;20736;-84
2024/01/02 07:10:12;;;;;;;21.20;13.93;;;5.20;99.90;;;;;;6151950;23;20236;-84
2024/01/02 07:12:41;;;;;;;20.00;12.67;;;5.20;99.90;;;;;;6150207;23;20663;-87
2024/01/02 07:15:14;;;;;;;18.93;12.77;;;5.10;99.90;;;;;;6144782;23;20179;-87
2024/01/02 07:17:48;;;;;;;22.50;12.80;;;5.30;99.90;;;;;;6157421;23;20202;-86
2024/01/02 07:20:20;;;;;;;21.43;13.03;;;5.20;99.90;;;;;;6159542;23;20162;-87
2024/01/02 07:22:49;;;;;;;21.30;13.53;;;5.20;99.90;;;;;;6161618;23;20871;-85
2024/01/02 07:25:18;;;;;;;20.40;13.47;;;5.20;99.90;;;;;;6160017;23;20631;-81
2024/01/02 07:27:47;;;;;;;22.10;13.10;;;5.20;99.90;;;;;;6160928;23;20169;-86
2024/01/02 07:30:17;;;;;;;20.17;14.30;;;5.20;99.90;;;;;;6131759;23;20178;-87
2024/01/02 07:32:46;;;;;;;22.60;14.53;;;5.20;99.90;;;;;;6120811;23;20697;-84
2024/01/02 07:35:16;;;;;;;18.27;12.87;;;5.30;99.90;;;;;;6157594;23;20186;-87
2024/01/02 07:37:48;;;;;;;19.87;13.27;;;5.30;99.90;;;;;;6161888;23;20273;-85
2024/01/02 07:40:18;;;;;;;22.63;13.37;;;5.30;99.90;;;;;;6173987;23;20439;-85
2024/01/02 07:43:14;;;;;;;22.90;13.60;;;5.30;99.90;;;;;;6176193;23;20215;-86
2024/01/02 07:45:43;;;;;;;21.67;13.47;;;5.30;99.90;;;;;;6172467;23;20201;-83
2024/01/02 07:48:14;;;;;;;20.60;12.73;;;5.30;99.90;;;;;;6158286;23;20191;-87
2024/01/02 07:50:44;;;;;;;16.87;11.90;;;5.30;99.90;;;;;;6169923;23;20232;-88
2024/01/02 07:53:19;;;;;;;15.53;10.93;;;5.30;99.90;;;;;;6173302;23;20186;-84
2024/01/02 07:55:48;;;;;;;14.93;10.90;;;5.30;99.90;;;;;;6165114;23;20202;-88
2024/01/02 07:58:17;;;;;;;14.23;10.33;;;5.30;99.90;;;;;;6162575;23;20181;-86
2024/01/02 08:00:48;;;;;;;16.43;11.23;;;5.30;99.90;;;;;;6163477;23;20167;-87
2024/01/02 08:03:19;;;;;;;16.37;10.03;;;5.40;99.90;;;;;;6167297;23;20234;-88
2024/01/02 08:05:50;;;;;;;15.97;10.23;;;5.40;99.90;;;;;;6135441;23;20673;-84
2024/01/02 08:08:24;;;;;;;15.97;10.50;;;5.30;99.90;;;;;;6171113;23;20242;-84
2024/01/02 08:10:53;;;;;;;14.40;10.17;;;5.40;99.90;;;;;;6160531;23;20235;-87
2024/01/02 08:13:25;;;;;;;19.07;10.87;;;5.20;99.90;;;;;;6160498;23;20163;-84
2024/01/02 08:15:56;;;;;;;19.23;11.00;;;5.40;99.90;;;;;;6123546;23;20189;-86
2024/01/02 08:18:28;;;;;;;16.40;10.27;;;5.50;99.90;;;;;;6161138;23;20175;-86
2024/01/02 08:20:59;;;;;;;17.40;11.73;;;5.40;99.90;;;;;;6170746;23;20243;-88
2024/01/02 08:23:29;;;;;;;16.93;11.90;;;5.40;99.90;;;;;;6133284;23;20202;-89
2024/01/02 08:25:58;;;;;;;16.77;11.37;;;5.50;99.90;;;;;;6122218;23;20644;-88
2024/01/02 08:28:27;;;;;;;17.53;12.20;;;5.40;99.90;;;;;;6161122;23;20178;-86
2024/01/02 08:30:57;;;;;;;20.83;12.57;;;5.40;99.90;;;;;;6161569;23;20221;-86
2024/01/02 08:33:26;;;;;;;17.17;12.00;;;5.40;99.90;;;;;;6160317;23;20176;-85
2024/01/02 08:36:01;;;;;;;20.23;12.80;;;5.40;99.90;;;;;;6163874;23;20183;-86
2024/01/02 08:38:31;;;;;;;17.13;12.50;;;5.60;99.90;;;;;;6159503;23;20597;-88
2024/01/02 08:41:01;;;;;;;19.87;13.03;;;5.50;99.90;;;;;;6160339;23;20179;-87
2024/01/02 08:43:34;;;;;;;20.83;13.80;;;5.50;99.90;;;;;;6159809;23;20215;-86
2024/01/02 08:46:06;;;;;;;21.17;14.00;;;5.50;99.90;;;;;;6160011;23;20266;-88
2024/01/02 08:48:35;;;;;;;20.60;13.40;;;5.50;99.90;;;;;;6161389;23;20167;-85
2024/01/02 08:51:07;;;;;;;19.77;13.63;;;5.50;99.90;;;;;;6156649;23;20167;-87
2024/01/02 08:53:38;;;;;;;24.17;14.97;;;5.70;99.90;;;;;;6120821;23;20262;-87
2024/01/02 08:56:10;;;;;;;24.23;14.63;;;5.60;99.90;;;;;;6174511;23;20183;-84
2024/01/02 08:58:39;;;;;;;23.80;15.77;;;5.50;99.90;;;;;;6176031;23;20174;-86
2024/01/02 09:01:17;;;;;;;26.27;15.97;;;5.60;99.90;;;;;;6163379;23;20171;-86
2024/01/02 09:03:58;;;;;;;23.00;15.37;;;6.00;99.90;;;;;;6177235;23;20198;-87
2024/01/02 09:06:36;;;;;;;25.87;17.63;;;5.70;99.90;;;;;;6158882;23;20183;-85
2024/01/02 09:09:15;;;;;;;26.20;15.13;;;5.70;99.90;;;;;;6156321;23;20194;-86
2024/01/02 09:11:47;;;;;;;25.10;16.47;;;5.70;99.90;;;;;;6119600;23;20179;-86
2024/01/02 09:14:16;;;;;;;28.57;16.60;;;5.60;99.90;;;;;;6159530;23;20167;-82
2024/01/02 09:16:48;;;;;;;25.90;17.17;;;5.70;99.90;;;;;;6163581;23;20237;-86
2024/01/02 09:35:55;;;;;;;30.40;18.17;;;5.60;99.90;;;;;;6116981;23;20206;-85
2024/01/02 09:38:25;;;;;;;29.23;18.47;;;6.00;99.90;;;;;;6156040;23;20247;-85
2024/01/02 09:41:15;;;;;;;28.10;18.60;;;6.00;99.90;;;;;;6153044;23;20183;-85
2024/01/02 14:14:15;;;;;;;14.77;10.30;;;6.00;99.90;;;;;;6152875;23;20314;-85
2024/01/02 15:19:34;;;;;;;24.03;13.97;;;3.40;99.90;;;;;;6142858;23;20214;-87
2024/01/02 15:22:21;;;;;;;26.40;13.93;;;3.40;99.90;;;;;;6169253;23;20423;-84
2024/01/02 15:25:02;;;;;;;28.10;15.40;;;3.30;99.90;;;;;;6170204;23;20202;-85
2024/01/02 15:27:37;;;;;;;26.70;14.63;;;3.50;99.90;;;;;;6137081;23;20183;-87
2024/01/02 15:30:09;;;;;;;27.73;15.93;;;3.40;99.90;;;;;;6164008;23;20195;-85
2024/01/02 15:32:41;;;;;;;29.83;16.77;;;3.30;99.90;;;;;;6174777;23;20308;-87
2024/01/02 15:35:20;;;;;;;31.67;17.27;;;3.50;99.90;;;;;;6171456;23;20159;-85
2024/01/02 15:37:52;;;;;;;28.70;16.17;;;3.60;99.90;;;;;;6161669;23;20182;-85
2024/01/02 15:40:26;;;;;;;33.33;18.43;;;3.70;99.90;;;;;;6153977;23;20209;-85
2024/01/02 15:43:07;;;;;;;28.50;18.07;;;3.70;99.90;;;;;;6145351;23;20606;-86
2024/01/02 15:45:41;;;;;;;32.07;18.27;;;3.70;99.90;;;;;;6156163;23;20210;-84
2024/01/02 15:48:23;;;;;;;34.83;20.03;;;3.80;99.90;;;;;;6148860;23;20172;-86
2024/01/02 15:51:02;;;;;;;34.63;20.53;;;3.80;99.90;;;;;;6146025;23;20338;-87
2024/01/02 15:53:36;;;;;;;33.33;19.70;;;3.90;99.90;;;;;;6148408;23;20302;-84
2024/01/02 15:56:06;;;;;;;35.10;20.93;;;3.90;99.90;;;;;;6144167;23;20199;-86
2024/01/02 15:58:47;;;;;;;38.83;20.77;;;4.00;99.90;;;;;;6147950;23;20599;-83
2024/01/02 16:01:17;;;;;;;33.40;20.70;;;4.00;99.90;;;;;;6149203;23;20184;-85
2024/01/02 16:04:25;;;;;;;36.17;20.27;;;4.10;99.90;;;;;;6146241;23;20203;-86
2024/01/02 16:07:41;;;;;;;38.27;20.33;;;3.90;99.90;;;;;;6149090;23;20266;-88
2024/01/02 16:10:45;;;;;;;37.70;21.17;;;3.90;99.90;;;;;;6126010;23;20273;-85
2024/01/02 16:13:46;;;;;;;34.47;21.63;;;4.00;99.90;;;;;;6149052;23;20180;-86
2024/01/02 16:16:37;;;;;;;38.53;21.77;;;4.20;99.90;;;;;;6158679;23;20167;-85
2024/01/02 16:19:32;;;;;;;35.17;21.37;;;4.10;99.90;;;;;;6163290;23;20242;-86
2024/01/02 16:22:30;;;;;;;38.83;21.37;;;4.10;99.90;;;;;;6148941;23;20207;-87
2024/01/02 16:25:24;;;;;;;36.43;20.60;;;4.10;99.90;;;;;;6111592;23;20207;-87
2024/01/02 16:28:26;;;;;;;37.60;22.17;;;4.10;99.90;;;;;;6146485;23;20164;-84
2024/01/02 16:31:33;;;;;;;36.67;21.63;;;4.20;99.90;;;;;;6147598;23;20179;-86
2024/01/02 16:34:32;;;;;;;38.13;23.47;;;4.20;99.90;;;;;;6124579;23;20180;-86
2024/01/02 16:37:24;;;;;;;36.53;22.87;;;4.10;99.90;;;;;;6137636;23;20250;-84
2024/01/02 16:40:08;;;;;;;41.23;23.40;;;4.30;99.90;;;;;;6148884;23;20238;-87
2024/01/02 16:42:45;;;;;;;39.63;23.63;;;4.30;99.90;;;;;;6152491;23;20181;-85
2024/01/02 16:45:14;;;;;;;38.97;23.60;;;4.30;99.90;;;;;;6148066;23;20531;-86
2024/01/02 16:47:43;;;;;;;36.40;23.07;;;4.40;99.90;;;;;;6114140;23;20183;-85
2024/01/02 16:50:23;;;;;;;38.00;23.27;;;4.40;99.90;;;;;;6143352;23;20190;-87
2024/01/02 16:52:53;;;;;;;40.03;23.47;;;4.40;99.90;;;;;;6149922;23;20233;-88
2024/01/02 16:55:24;;;;;;;40.30;23.67;;;4.40;99.90;;;;;;6150180;23;20168;-85
2024/01/02 16:57:55;;;;;;;37.33;23.93;;;4.40;99.90;;;;;;6148803;23;20232;-85
2024/01/02 17:00:26;;;;;;;36.00;23.57;;;4.40;99.90;;;;;;6164432;23;20224;-87
2024/01/02 17:02:57;;;;;;;41.10;24.07;;;4.40;99.90;;;;;;6155001;23;20165;-86
2024/01/02 17:05:34;;;;;;;37.20;22.97;;;4.40;99.90;;;;;;6148000;23;20535;-86
2024/01/02 17:08:04;;;;;;;39.70;23.13;;;4.60;99.90;;;;;;6172684;23;20306;-86
2024/01/02 17:10:36;;;;;;;38.03;22.93;;;4.40;99.90;;;;;;6152858;23;20166;-87
2024/01/02 17:13:06;;;;;;;36.13;21.47;;;4.50;99.90;;;;;;6150154;23;20232;-87
2024/01/02 17:15:36;;;;;;;38.40;23.50;;;4.40;99.90;;;;;;6151318;23;20289;-89
2024/01/02 17:18:05;;;;;;;33.33;21.20;;;4.40;99.90;;;;;;6151658;23;20196;-84
2024/01/02 17:20:38;;;;;;;32.27;21.30;;;4.40;99.90;;;;;;6117522;23;20177;-86
2024/01/02 17:23:11;;;;;;;32.40;20.67;;;4.30;99.90;;;;;;6148454;23;20177;-85
2024/01/02 17:25:41;;;;;;;37.53;22.73;;;4.50;99.90;;;;;;6118611;23;20210;-85
2024/01/02 17:28:14;;;;;;;34.27;20.53;;;4.60;99.90;;;;;;6154370;23;20160;-87
2024/01/02 17:30:45;;;;;;;35.20;20.73;;;4.40;99.90;;;;;;6157707;23;20223;-86
2024/01/02 17:33:14;;;;;;;32.40;21.23;;;4.40;99.90;;;;;;6157380;23;20180;-87
2024/01/02 17:35:47;;;;;;;34.40;20.80;;;4.10;99.90;;;;;;6155500;23;20156;-86
2024/01/02 17:38:16;;;;;;;32.80;19.43;;;4.10;99.90;;;;;;6157384;23;20177;-86
2024/01/02 17:40:46;;;;;;;32.97;19.83;;;4.10;99.90;;;;;;6163149;23;20666;-84
2024/01/02 17:43:18;;;;;;;33.47;20.73;;;4.00;99.90;;;;;;6164051;23;20672;-85
2024/01/02 17:45:49;;;;;;;30.70;19.97;;;4.00;99.90;;;;;;6155546;23;20744;-86
2024/01/02 17:48:18;;;;;;;35.53;20.23;;;3.70;99.90;;;;;;6150174;23;20609;-85
2024/01/02 17:50:55;;;;;;;35.30;20.37;;;4.10;99.90;;;;;;6152990;23;20181;-85
2024/01/02 17:53:26;;;;;;;36.57;20.30;;;3.90;99.90;;;;;;6152508;23;20663;-85
2024/01/02 17:55:57;;;;;;;32.53;20.27;;;4.00;99.90;;;;;;6158679;23;20159;-86
2024/01/02 17:58:35;;;;;;;32.37;20.67;;;4.00;99.90;;;;;;6159053;23;20568;-85
2024/01/02 18:01:07;;;;;;;35.40;21.37;;;4.00;99.90;;;;;;6160638;23;20599;-86
2024/01/02 18:03:52;;;;;;;31.20;19.90;;;4.10;99.90;;;;;;6119138;23;20191;-87
2024/01/02 18:06:28;;;;;;;35.73;20.43;;;4.10;99.90;;;;;;6156556;23;20190;-86
2024/01/02 18:09:14;;;;;;;34.87;21.07;;;4.10;99.90;;;;;;6153431;23;20162;-86
2024/01/02 18:11:52;;;;;;;33.17;20.43;;;4.00;99.90;;;;;;6156862;23;20328;-87
2024/01/02 18:14:37;;;;;;;32.93;20.00;;;4.10;99.90;;;;;;6123034;23;20254;-86
2024/01/02 18:17:15;;;;;;;35.70;20.60;;;4.10;99.90;;;;;;6155783;23;20167;-85
2024/01/02 18:20:00;;;;;;;32.47;20.77;;;4.10;99.90;;;;;;6152932;23;20254;-86
2024/01/02 18:22:32;;;;;;;34.10;20.43;;;4.10;99.90;;;;;;6151237;23;20164;-86
2024/01/02 18:25:16;;;;;;;33.47;19.67;;;4.10;99.90;;;;;;6151104;23;20180;-85
2024/01/02 18:28:04;;;;;;;35.27;20.70;;;4.20;99.90;;;;;;6156828;23;20160;-86
2024/01/02 18:30:56;;;;;;;34.87;20.73;;;4.20;99.90;;;;;;6154197;23;20156;-86
2024/01/02 18:33:36;;;;;;;30.37;19.83;;;4.40;99.90;;;;;;6154399;23;20217;-86
2024/01/02 18:36:07;;;;;;;34.97;20.40;;;4.10;99.90;;;;;;6152597;23;20510;-87
2024/01/02 18:38:46;;;;;;;31.17;19.07;;;4.20;99.90;;;;;;6156725;23;20160;-85
2024/01/02 18:41:26;;;;;;;31.73;18.57;;;4.30;99.90;;;;;;6158657;23;20550;-85
2024/01/02 18:44:03;;;;;;;33.33;19.27;;;4.20;99.90;;;;;;6154852;23;20166;-84
2024/01/02 18:46:40;;;;;;;29.73;19.00;;;4.30;99.90;;;;;;6153131;23;20182;-86
2024/01/02 18:49:13;;;;;;;33.20;20.77;;;4.20;99.90;;;;;;6149273;23;20487;-84
2024/01/02 18:51:55;;;;;;;31.50;19.77;;;4.20;99.90;;;;;;6150826;23;20234;-84
2024/01/02 18:54:37;;;;;;;35.70;19.73;;;4.20;99.90;;;;;;6150145;23;20170;-85
2024/01/02 18:57:07;;;;;;;29.83;19.63;;;4.40;99.90;;;;;;6150635;23;20162;-85